Time;durP1;ratioP1;P1;durP2;ratioP2;P2;SDS_P1;SDS_P2;PMS_P1;PMS_P2;Temp;Humidity;BMP_temperature;BMP_pressure;BME280_temperature;BME280_humidity;BME280_pressure;Samples;Min_cycle;Max_cycle;Signal;HPM_P1;HPM_P2
2023/07/13 00:00:36;;;;;;;13.00;11.73;;;;;;;;;;5091496;28;20231;-82
2023/07/13 00:03:05;;;;;;;11.93;10.73;;;;;;;;;;5090973;28;20250;-82
2023/07/13 00:05:32;;;;;;;12.60;10.43;;;;;;;;;;5102055;28;20203;-82
2023/07/13 00:07:58;;;;;;;11.27;10.13;;;;;;;;;;5097313;28;20207;-82
2023/07/13 00:10:26;;;;;;;12.37;11.07;;;;;;;;;;5111590;28;20203;-82
2023/07/13 00:12:54;;;;;;;13.13;11.93;;;;;;;;;;5093195;28;20670;-82
2023/07/13 00:15:23;;;;;;;13.33;11.90;;;;;;;;;;5102603;28;20630;-82
2023/07/13 00:17:50;;;;;;;14.97;11.57;;;;;;;;;;5092525;28;20577;-82
2023/07/13 00:20:21;;;;;;;13.10;11.10;;;;;;;;;;5102843;28;20260;-82
2023/07/13 00:22:48;;;;;;;17.23;11.43;;;;;;;;;;5111206;28;20203;-82
2023/07/13 00:25:15;;;;;;;11.63;10.30;;;;;;;;;;5098875;28;20503;-82
2023/07/13 00:27:43;;;;;;;11.33;10.23;;;;;;;;;;5091002;28;20273;-82
2023/07/13 00:30:11;;;;;;;11.70;10.60;;;;;;;;;;5104202;28;20757;-82
2023/07/13 00:32:39;;;;;;;11.47;10.20;;;;;;;;;;5111089;28;20203;-82
2023/07/13 00:35:06;;;;;;;12.50;11.37;;;;;;;;;;5097437;28;20675;-81
2023/07/13 00:37:35;;;;;;;11.40;10.27;;;;;;;;;;5111162;28;20313;-82
2023/07/13 00:40:02;;;;;;;12.20;11.10;;;;;;;;;;5097006;28;20295;-82
2023/07/13 00:42:29;;;;;;;11.50;10.33;;;;;;;;;;5103721;28;20227;-82
2023/07/13 00:45:08;;;;;;;11.53;10.37;;;;;;;;;;5090659;28;20211;-82
2023/07/13 00:47:35;;;;;;;11.90;10.77;;;;;;;;;;5100360;28;20203;-82
2023/07/13 00:50:03;;;;;;;11.70;10.60;;;;;;;;;;5096439;28;20219;-82
2023/07/13 00:52:30;;;;;;;13.43;10.80;;;;;;;;;;5110808;28;20195;-82
2023/07/13 00:54:59;;;;;;;13.60;10.50;;;;;;;;;;5093738;28;20228;-82
2023/07/13 00:57:25;;;;;;;14.77;9.90;;;;;;;;;;5090119;28;20204;-82
2023/07/13 00:59:55;;;;;;;11.07;9.90;;;;;;;;;;5094965;28;20218;-82
2023/07/13 01:02:22;;;;;;;19.70;11.73;;;;;;;;;;5099748;28;20318;-82
2023/07/13 01:04:49;;;;;;;13.53;11.13;;;;;;;;;;5104054;28;20204;-82
2023/07/13 01:07:16;;;;;;;13.43;10.60;;;;;;;;;;5101392;28;20626;-82
2023/07/13 01:09:44;;;;;;;12.30;11.00;;;;;;;;;;5106237;28;20211;-82
2023/07/13 01:12:13;;;;;;;12.50;11.33;;;;;;;;;;5101721;28;20199;-82
2023/07/13 01:14:40;;;;;;;12.60;11.40;;;;;;;;;;5099675;28;20234;-82
2023/07/13 01:17:10;;;;;;;12.40;10.63;;;;;;;;;;5101812;28;20200;-82
2023/07/13 01:19:39;;;;;;;11.47;10.20;;;;;;;;;;5107817;28;20207;-82
2023/07/13 01:22:11;;;;;;;13.03;10.70;;;;;;;;;;5107209;28;20227;-83
2023/07/13 01:24:38;;;;;;;11.43;10.33;;;;;;;;;;5114398;28;20210;-82
2023/07/13 01:27:06;;;;;;;12.43;10.73;;;;;;;;;;5113232;28;20196;-82
2023/07/13 01:29:35;;;;;;;12.67;11.27;;;;;;;;;;5093986;28;20211;-82
2023/07/13 01:32:02;;;;;;;12.63;11.37;;;;;;;;;;5109671;28;20582;-82
2023/07/13 01:34:29;;;;;;;12.93;11.80;;;;;;;;;;5105183;28;20730;-82
2023/07/13 01:36:55;;;;;;;12.07;10.80;;;;;;;;;;5094001;28;20211;-82
2023/07/13 01:39:24;;;;;;;15.07;10.67;;;;;;;;;;5103416;28;20215;-82
2023/07/13 01:41:51;;;;;;;12.43;11.23;;;;;;;;;;5097936;28;20278;-82
2023/07/13 01:44:17;;;;;;;13.17;11.87;;;;;;;;;;5094232;28;20212;-82
2023/07/13 01:46:44;;;;;;;12.73;11.43;;;;;;;;;;5107212;28;20209;-82
2023/07/13 01:49:11;;;;;;;13.33;12.03;;;;;;;;;;5093795;28;20224;-82
2023/07/13 01:51:38;;;;;;;12.53;11.33;;;;;;;;;;5097449;28;20195;-82
2023/07/13 01:54:05;;;;;;;11.53;10.43;;;;;;;;;;5113879;28;20199;-82
2023/07/13 01:56:33;;;;;;;13.57;12.27;;;;;;;;;;5110090;28;20204;-82
2023/07/13 01:58:59;;;;;;;12.50;11.30;;;;;;;;;;5103900;28;20213;-82
2023/07/13 02:01:26;;;;;;;11.77;10.57;;;;;;;;;;5100435;28;20223;-82
2023/07/13 02:03:53;;;;;;;11.87;10.67;;;;;;;;;;5102643;28;20257;-82
2023/07/13 02:06:20;;;;;;;12.03;10.87;;;;;;;;;;5092987;28;20728;-82
2023/07/13 02:08:47;;;;;;;14.77;11.30;;;;;;;;;;5104935;28;20229;-84
2023/07/13 02:11:13;;;;;;;12.70;11.50;;;;;;;;;;5099940;28;20215;-84
2023/07/13 02:13:42;;;;;;;11.60;10.37;;;;;;;;;;5101477;28;20678;-83
2023/07/13 02:16:08;;;;;;;12.47;11.27;;;;;;;;;;5106717;28;20204;-84
2023/07/13 02:18:35;;;;;;;12.77;11.27;;;;;;;;;;5104809;28;20207;-83
2023/07/13 02:21:02;;;;;;;12.90;11.33;;;;;;;;;;5099925;28;20282;-83
2023/07/13 02:23:29;;;;;;;15.10;11.47;;;;;;;;;;5101425;28;20208;-83
2023/07/13 02:25:56;;;;;;;14.63;11.50;;;;;;;;;;5105640;28;20657;-83
2023/07/13 02:28:23;;;;;;;17.57;11.30;;;;;;;;;;5092907;28;20223;-84
2023/07/13 02:30:54;;;;;;;14.57;11.40;;;;;;;;;;5111882;28;20204;-84
2023/07/13 02:33:25;;;;;;;12.73;11.47;;;;;;;;;;5108428;28;20695;-84
2023/07/13 02:35:52;;;;;;;14.00;12.77;;;;;;;;;;5105366;28;20201;-83
2023/07/13 02:38:19;;;;;;;12.40;10.83;;;;;;;;;;5074832;28;20245;-83
2023/07/13 02:40:47;;;;;;;12.70;11.40;;;;;;;;;;5092691;28;20389;-83
2023/07/13 02:43:14;;;;;;;13.00;11.70;;;;;;;;;;5074305;28;20232;-83
2023/07/13 02:45:45;;;;;;;15.00;11.50;;;;;;;;;;5106004;28;20199;-83
2023/07/13 02:48:15;;;;;;;13.53;11.47;;;;;;;;;;5102387;28;20199;-83
2023/07/13 02:50:42;;;;;;;13.27;11.87;;;;;;;;;;5107283;28;20252;-83
2023/07/13 02:53:09;;;;;;;13.13;10.70;;;;;;;;;;5112495;28;20200;-83
2023/07/13 02:55:36;;;;;;;12.57;11.30;;;;;;;;;;5094592;28;20199;-83
2023/07/13 02:58:03;;;;;;;16.13;12.10;;;;;;;;;;5093956;28;20207;-83
2023/07/13 03:00:30;;;;;;;11.63;10.53;;;;;;;;;;5112820;28;20211;-83
2023/07/13 03:02:58;;;;;;;12.33;11.20;;;;;;;;;;5112327;28;20709;-82
2023/07/13 03:05:26;;;;;;;11.33;10.23;;;;;;;;;;5112262;28;20204;-83
2023/07/13 03:07:53;;;;;;;14.47;11.23;;;;;;;;;;5094427;28;20259;-84
2023/07/13 03:10:20;;;;;;;13.00;11.47;;;;;;;;;;5105668;28;20207;-84
2023/07/13 03:12:47;;;;;;;11.97;10.77;;;;;;;;;;5057279;28;20952;-84
2023/07/13 03:15:14;;;;;;;16.57;11.77;;;;;;;;;;5107500;28;20207;-84
2023/07/13 03:17:41;;;;;;;12.73;11.47;;;;;;;;;;5112410;28;20195;-84
2023/07/13 03:20:09;;;;;;;11.47;10.37;;;;;;;;;;5093616;28;20207;-83
2023/07/13 03:22:37;;;;;;;14.70;11.50;;;;;;;;;;5093591;28;20314;-84
2023/07/13 03:25:06;;;;;;;12.63;10.90;;;;;;;;;;5093733;28;20260;-85
2023/07/13 03:27:33;;;;;;;12.57;11.37;;;;;;;;;;5106297;28;20561;-84
2023/07/13 03:30:00;;;;;;;15.33;12.37;;;;;;;;;;5052348;28;20701;-82
2023/07/13 03:32:27;;;;;;;14.20;12.63;;;;;;;;;;5058411;28;20208;-82
2023/07/13 03:34:54;;;;;;;11.53;10.53;;;;;;;;;;5085044;28;20208;-82
2023/07/13 03:37:22;;;;;;;11.87;10.83;;;;;;;;;;5086448;28;20306;-82
2023/07/13 03:39:50;;;;;;;13.97;11.30;;;;;;;;;;5101566;28;20199;-82
2023/07/13 03:42:17;;;;;;;11.97;10.80;;;;;;;;;;5093784;28;20212;-82
2023/07/13 03:44:51;;;;;;;12.43;11.27;;;;;;;;;;5091477;28;20204;-83
2023/07/13 03:47:21;;;;;;;12.17;10.97;;;;;;;;;;5078663;28;20791;-83
2023/07/13 03:49:48;;;;;;;12.43;11.23;;;;;;;;;;5081869;28;21046;-83
2023/07/13 03:52:15;;;;;;;15.17;11.37;;;;;;;;;;5085992;28;20204;-83
2023/07/13 03:54:42;;;;;;;12.90;11.50;;;;;;;;;;5086639;28;20200;-83
2023/07/13 03:57:11;;;;;;;12.70;11.40;;;;;;;;;;5073407;28;20219;-82
2023/07/13 03:59:38;;;;;;;12.53;11.23;;;;;;;;;;5066710;28;20269;-83
2023/07/13 04:02:05;;;;;;;15.00;11.87;;;;;;;;;;5072792;28;20227;-83
2023/07/13 04:04:32;;;;;;;14.30;12.90;;;;;;;;;;5104741;28;20200;-83
2023/07/13 04:06:59;;;;;;;13.53;12.10;;;;;;;;;;5076355;28;20203;-83
2023/07/13 04:09:27;;;;;;;14.07;12.37;;;;;;;;;;5077541;28;20216;-83
2023/07/13 04:11:54;;;;;;;13.33;12.03;;;;;;;;;;5049642;28;20663;-83
2023/07/13 04:14:23;;;;;;;14.10;12.67;;;;;;;;;;5055935;28;20219;-83
2023/07/13 04:16:50;;;;;;;12.53;11.33;;;;;;;;;;5090029;28;20204;-83
2023/07/13 04:19:17;;;;;;;14.37;12.50;;;;;;;;;;5085758;28;20200;-84
2023/07/13 04:21:45;;;;;;;13.53;12.20;;;;;;;;;;5101353;28;20200;-84
2023/07/13 04:24:12;;;;;;;12.57;11.37;;;;;;;;;;5111039;28;20223;-83
2023/07/13 04:26:39;;;;;;;13.90;12.60;;;;;;;;;;5111062;28;20202;-84
2023/07/13 04:29:07;;;;;;;13.33;11.20;;;;;;;;;;5059867;28;20239;-83
2023/07/13 04:31:35;;;;;;;12.73;11.57;;;;;;;;;;5097854;28;20213;-84
2023/07/13 04:34:03;;;;;;;16.07;12.67;;;;;;;;;;5110222;28;20207;-83
2023/07/13 04:36:30;;;;;;;12.43;11.17;;;;;;;;;;5096161;28;20208;-83
2023/07/13 04:38:57;;;;;;;13.27;11.97;;;;;;;;;;5072865;28;20200;-84
2023/07/13 04:41:24;;;;;;;12.30;11.00;;;;;;;;;;5072371;28;20200;-84
2023/07/13 04:43:51;;;;;;;11.73;10.17;;;;;;;;;;5081619;28;20265;-84
2023/07/13 04:46:19;;;;;;;12.17;10.93;;;;;;;;;;5060634;28;20204;-84
2023/07/13 04:48:50;;;;;;;16.90;11.20;;;;;;;;;;5081662;28;20636;-84
2023/07/13 04:51:18;;;;;;;12.03;10.93;;;;;;;;;;5100608;28;20248;-84
2023/07/13 04:53:45;;;;;;;11.57;10.47;;;;;;;;;;5114171;28;20207;-84
2023/07/13 04:56:11;;;;;;;11.80;10.70;;;;;;;;;;5097275;28;20207;-84
2023/07/13 04:58:40;;;;;;;13.23;11.27;;;;;;;;;;5104495;28;20207;-83
2023/07/13 05:01:08;;;;;;;13.40;10.80;;;;;;;;;;5113719;28;20199;-84
2023/07/13 05:03:35;;;;;;;12.53;11.30;;;;;;;;;;5103429;28;20228;-83
2023/07/13 05:06:05;;;;;;;11.70;10.70;;;;;;;;;;5107629;28;20686;-84
2023/07/13 05:08:32;;;;;;;12.57;11.37;;;;;;;;;;5093964;28;20269;-83
2023/07/13 05:11:00;;;;;;;12.40;11.10;;;;;;;;;;5107860;28;20208;-84
2023/07/13 05:13:27;;;;;;;12.77;11.67;;;;;;;;;;5106442;28;20196;-84
2023/07/13 05:15:58;;;;;;;12.67;11.33;;;;;;;;;;5109391;28;20196;-83
2023/07/13 05:18:25;;;;;;;13.30;11.17;;;;;;;;;;5107042;28;20203;-84
2023/07/13 05:21:00;;;;;;;12.17;10.97;;;;;;;;;;5100669;28;20199;-84
2023/07/13 05:23:29;;;;;;;14.33;11.90;;;;;;;;;;5113521;28;20280;-84
2023/07/13 05:25:56;;;;;;;15.53;11.63;;;;;;;;;;5102542;28;20252;-84
2023/07/13 05:28:23;;;;;;;11.10;10.03;;;;;;;;;;5098967;28;20200;-84
2023/07/13 05:30:50;;;;;;;13.73;11.90;;;;;;;;;;5112883;28;20204;-84
2023/07/13 05:33:17;;;;;;;16.95;10.95;;;;;;;;;;5114234;28;20604;-83
2023/07/13 05:35:44;;;;;;;16.97;11.60;;;;;;;;;;5100329;28;20684;-84
2023/07/13 05:38:11;;;;;;;25.20;12.30;;;;;;;;;;5114165;28;20206;-84
2023/07/13 05:40:39;;;;;;;17.57;11.63;;;;;;;;;;5100516;28;20281;-83
2023/07/13 05:43:06;;;;;;;13.30;11.17;;;;;;;;;;5101070;28;20231;-84
2023/07/13 05:45:33;;;;;;;11.90;10.73;;;;;;;;;;5107552;28;20201;-84
2023/07/13 05:47:59;;;;;;;12.57;11.10;;;;;;;;;;5093585;28;20192;-83
2023/07/13 05:50:27;;;;;;;11.50;10.27;;;;;;;;;;5094360;28;20220;-83
2023/07/13 05:52:54;;;;;;;12.07;10.88;;;;;;;;;;5106854;28;20207;-84
2023/07/13 05:55:21;;;;;;;11.63;10.40;;;;;;;;;;5093440;28;20200;-84
2023/07/13 05:57:49;;;;;;;13.52;10.38;;;;;;;;;;5107145;28;20211;-84
2023/07/13 06:00:16;;;;;;;11.15;9.93;;;;;;;;;;5093980;28;20196;-84
2023/07/13 06:02:43;;;;;;;11.02;9.85;;;;;;;;;;5106553;28;20634;-83
2023/07/13 06:05:10;;;;;;;10.52;9.52;;;;;;;;;;5093465;28;20196;-83
2023/07/13 06:07:37;;;;;;;12.00;10.63;;;;;;;;;;5106915;28;20199;-83
2023/07/13 06:10:04;;;;;;;11.52;10.48;;;;;;;;;;5101025;28;20203;-82
2023/07/13 06:12:31;;;;;;;11.48;10.38;;;;;;;;;;5113431;28;20235;-84
2023/07/13 06:14:59;;;;;;;13.77;10.60;;;;;;;;;;5105806;28;20207;-84
2023/07/13 06:17:26;;;;;;;14.38;10.60;;;;;;;;;;5108091;28;20212;-84
2023/07/13 06:19:53;;;;;;;10.98;9.88;;;;;;;;;;5113137;28;20207;-83
2023/07/13 06:22:19;;;;;;;11.50;9.90;;;;;;;;;;5099486;28;20212;-84
2023/07/13 06:24:46;;;;;;;11.32;10.23;;;;;;;;;;5114004;28;20590;-85
2023/07/13 06:27:13;;;;;;;11.68;10.43;;;;;;;;;;5113250;28;20260;-84
2023/07/13 06:29:40;;;;;;;10.82;9.25;;;;;;;;;;5113391;28;20595;-84
2023/07/13 06:32:09;;;;;;;14.55;9.52;;;;;;;;;;5113311;28;20199;-84
2023/07/13 06:34:36;;;;;;;11.27;9.93;;;;;;;;;;5103367;28;20211;-84
2023/07/13 06:37:03;;;;;;;11.68;9.82;;;;;;;;;;5109249;28;20195;-84
2023/07/13 06:39:30;;;;;;;10.18;8.80;;;;;;;;;;5113241;28;20256;-84
2023/07/13 06:41:56;;;;;;;9.48;8.65;;;;;;;;;;5112349;28;20343;-84
2023/07/13 06:44:23;;;;;;;10.18;9.18;;;;;;;;;;5112990;28;20244;-84
2023/07/13 06:46:50;;;;;;;10.07;9.07;;;;;;;;;;5112526;28;20200;-84
2023/07/13 06:49:18;;;;;;;12.10;9.35;;;;;;;;;;5112790;28;20228;-84
2023/07/13 06:51:45;;;;;;;9.77;8.48;;;;;;;;;;5099124;28;20199;-84
2023/07/13 06:54:12;;;;;;;10.05;8.98;;;;;;;;;;5112643;28;20211;-84
2023/07/13 06:56:38;;;;;;;11.25;9.32;;;;;;;;;;5095220;28;20200;-84
2023/07/13 06:59:05;;;;;;;11.70;9.80;;;;;;;;;;5092672;28;20208;-84
2023/07/13 07:01:32;;;;;;;10.95;9.15;;;;;;;;;;5110116;28;20191;-84
2023/07/13 07:03:59;;;;;;;12.63;9.80;;;;;;;;;;5101358;28;20292;-84
2023/07/13 07:06:27;;;;;;;10.20;9.13;;;;;;;;;;5097100;28;20204;-84
2023/07/13 07:08:54;;;;;;;14.80;9.32;;;;;;;;;;5100910;28;20231;-84
2023/07/13 07:11:24;;;;;;;11.25;10.15;;;;;;;;;;5105323;28;20192;-84
2023/07/13 07:13:51;;;;;;;9.30;8.45;;;;;;;;;;5104280;28;20593;-84
2023/07/13 07:16:18;;;;;;;9.93;8.93;;;;;;;;;;5093407;28;20207;-85
2023/07/13 07:18:45;;;;;;;10.82;9.60;;;;;;;;;;5104501;28;20681;-84
2023/07/13 07:21:14;;;;;;;9.85;8.85;;;;;;;;;;5106279;28;20619;-84
2023/07/13 07:23:45;;;;;;;12.18;8.93;;;;;;;;;;5091387;28;20741;-84
2023/07/13 07:26:12;;;;;;;14.07;10.05;;;;;;;;;;5099207;28;20195;-84
2023/07/13 07:28:39;;;;;;;12.93;10.00;;;;;;;;;;5111934;28;20195;-83
2023/07/13 07:31:05;;;;;;;11.07;9.88;;;;;;;;;;5104590;28;20201;-84
2023/07/13 07:33:33;;;;;;;9.75;8.75;;;;;;;;;;5092032;28;20674;-85
2023/07/13 07:36:00;;;;;;;10.82;9.02;;;;;;;;;;5112190;28;20684;-84
2023/07/13 07:38:27;;;;;;;9.95;9.05;;;;;;;;;;5110925;28;20648;-85
2023/07/13 07:40:56;;;;;;;10.48;9.13;;;;;;;;;;5099867;28;20192;-85
2023/07/13 07:43:23;;;;;;;10.75;9.50;;;;;;;;;;5097651;28;20223;-85
2023/07/13 07:45:49;;;;;;;9.73;8.82;;;;;;;;;;5103554;28;20204;-84
2023/07/13 07:48:16;;;;;;;10.80;9.75;;;;;;;;;;5093447;28;20204;-85
2023/07/13 07:50:43;;;;;;;10.15;9.20;;;;;;;;;;5102847;28;20224;-84
2023/07/13 07:53:11;;;;;;;10.70;9.60;;;;;;;;;;5105213;28;20203;-84
2023/07/13 07:55:38;;;;;;;10.75;9.63;;;;;;;;;;5091440;28;20583;-84
2023/07/13 07:58:06;;;;;;;13.32;8.98;;;;;;;;;;5093994;28;20207;-84
2023/07/13 08:00:35;;;;;;;10.50;9.50;;;;;;;;;;5101969;28;20254;-84
2023/07/13 08:03:02;;;;;;;12.70;9.27;;;;;;;;;;5104650;28;20226;-83
2023/07/13 08:05:30;;;;;;;10.40;9.13;;;;;;;;;;5091273;28;20269;-84
2023/07/13 08:07:57;;;;;;;9.63;8.80;;;;;;;;;;5094863;28;20206;-84
2023/07/13 08:10:24;;;;;;;10.00;9.05;;;;;;;;;;5100846;28;20234;-83
2023/07/13 08:12:50;;;;;;;9.35;8.55;;;;;;;;;;5104437;28;20207;-83
2023/07/13 08:15:20;;;;;;;11.50;8.95;;;;;;;;;;5102547;28;20272;-84
2023/07/13 08:17:48;;;;;;;12.18;9.80;;;;;;;;;;5097061;28;20199;-83
2023/07/13 08:20:15;;;;;;;11.05;9.38;;;;;;;;;;5111074;28;20202;-84
2023/07/13 08:22:41;;;;;;;13.52;9.80;;;;;;;;;;5110568;28;20195;-84
2023/07/13 08:25:09;;;;;;;11.57;10.32;;;;;;;;;;5110610;28;20574;-84
2023/07/13 08:27:36;;;;;;;9.80;8.77;;;;;;;;;;5104886;28;20674;-83
2023/07/13 08:30:05;;;;;;;10.57;9.57;;;;;;;;;;5103363;28;20207;-84
2023/07/13 08:32:33;;;;;;;10.07;9.07;;;;;;;;;;5096966;28;20206;-83
2023/07/13 08:35:00;;;;;;;11.13;9.45;;;;;;;;;;5098085;28;20197;-84
2023/07/13 08:37:27;;;;;;;12.75;8.43;;;;;;;;;;5110732;28;20210;-84
2023/07/13 08:39:54;;;;;;;9.63;8.73;;;;;;;;;;5097844;28;20211;-84
2023/07/13 08:42:32;;;;;;;10.13;9.07;;;;;;;;;;5097649;28;20636;-84
2023/07/13 08:45:19;;;;;;;10.70;8.55;;;;;;;;;;5097354;28;20232;-83
2023/07/13 08:47:49;;;;;;;10.13;9.10;;;;;;;;;;5106903;28;20226;-83
2023/07/13 08:50:19;;;;;;;10.93;8.82;;;;;;;;;;5092189;28;20228;-83
2023/07/13 08:52:48;;;;;;;11.80;9.40;;;;;;;;;;5090352;28;20203;-84
2023/07/13 08:55:18;;;;;;;9.80;8.88;;;;;;;;;;5090873;28;20200;-84
2023/07/13 08:57:49;;;;;;;10.73;9.65;;;;;;;;;;5090197;28;20212;-83
2023/07/13 09:00:16;;;;;;;12.02;9.50;;;;;;;;;;5098733;28;20666;-84
2023/07/13 09:02:49;;;;;;;9.55;8.68;;;;;;;;;;5095373;28;20196;-83
2023/07/13 09:05:19;;;;;;;14.45;10.27;;;;;;;;;;5090929;28;20228;-85
2023/07/13 09:07:59;;;;;;;13.18;9.98;;;;;;;;;;5106969;28;20199;-84
2023/07/13 09:10:29;;;;;;;10.90;9.88;;;;;;;;;;5099094;28;20212;-84
2023/07/13 09:13:11;;;;;;;12.02;10.13;;;;;;;;;;5096429;28;20227;-83
2023/07/13 09:15:40;;;;;;;15.30;12.15;;;;;;;;;;5097330;28;20449;-84
2023/07/13 09:18:12;;;;;;;11.80;10.68;;;;;;;;;;5101723;28;20269;-84
2023/07/13 09:20:47;;;;;;;16.42;9.48;;;;;;;;;;5093673;28;20215;-83
2023/07/13 09:23:15;;;;;;;10.60;9.73;;;;;;;;;;5110889;28;20203;-85
2023/07/13 09:25:43;;;;;;;10.07;9.18;;;;;;;;;;5092047;28;20204;-84
2023/07/13 09:28:13;;;;;;;12.57;10.40;;;;;;;;;;5101727;28;20203;-85
2023/07/13 09:30:49;;;;;;;12.82;10.27;;;;;;;;;;5107136;28;20204;-84
2023/07/13 09:33:17;;;;;;;10.05;9.05;;;;;;;;;;5102388;28;20715;-83
2023/07/13 09:35:44;;;;;;;12.13;9.38;;;;;;;;;;5107276;28;20233;-83
2023/07/13 09:38:15;;;;;;;10.00;9.10;;;;;;;;;;5106203;28;20203;-83
2023/07/13 09:40:50;;;;;;;10.40;9.48;;;;;;;;;;5107624;28;20196;-84
2023/07/13 09:43:18;;;;;;;10.43;9.27;;;;;;;;;;5108420;28;20199;-83
2023/07/13 09:45:47;;;;;;;11.07;10.18;;;;;;;;;;5106670;28;20209;-83
2023/07/13 09:48:15;;;;;;;10.27;9.38;;;;;;;;;;5094118;28;20250;-84
2023/07/13 09:50:44;;;;;;;11.80;10.70;;;;;;;;;;5102488;28;20220;-84
2023/07/13 09:53:15;;;;;;;12.80;10.63;;;;;;;;;;5113670;28;20199;-83
2023/07/13 09:55:43;;;;;;;11.10;10.05;;;;;;;;;;5114090;28;20196;-83
2023/07/13 09:58:12;;;;;;;11.40;10.25;;;;;;;;;;5100554;28;20202;-83
2023/07/13 10:00:40;;;;;;;11.45;10.35;;;;;;;;;;5103484;28;20223;-83
2023/07/13 10:03:17;;;;;;;12.25;10.30;;;;;;;;;;5097334;28;20229;-83
2023/07/13 10:05:47;;;;;;;12.13;11.02;;;;;;;;;;5114035;28;20202;-83
2023/07/13 10:08:20;;;;;;;12.93;10.75;;;;;;;;;;5107122;28;20204;-83
2023/07/13 10:10:47;;;;;;;11.18;10.07;;;;;;;;;;5093401;28;20205;-83
2023/07/13 10:13:34;;;;;;;11.07;9.98;;;;;;;;;;5093401;28;20253;-83
2023/07/13 10:16:01;;;;;;;9.40;8.68;;;;;;;;;;5107091;28;20277;-83
2023/07/13 10:18:29;;;;;;;8.70;7.93;;;;;;;;;;5103617;28;20196;-83
2023/07/13 10:21:10;;;;;;;10.20;8.13;;;;;;;;;;5109551;28;20658;-83
2023/07/13 10:23:37;;;;;;;11.88;8.57;;;;;;;;;;5092772;28;20218;-83
2023/07/13 10:26:04;;;;;;;10.10;8.02;;;;;;;;;;5099384;28;20214;-84
2023/07/13 10:28:34;;;;;;;9.40;8.50;;;;;;;;;;5099723;28;20204;-84
2023/07/13 10:31:02;;;;;;;8.68;7.78;;;;;;;;;;5099562;28;20206;-84
2023/07/13 10:33:29;;;;;;;8.73;8.02;;;;;;;;;;5113211;28;20196;-82
2023/07/13 10:36:06;;;;;;;12.93;9.23;;;;;;;;;;5112954;28;20204;-83
2023/07/13 10:38:34;;;;;;;9.48;8.23;;;;;;;;;;5112257;28;20199;-83
2023/07/13 10:41:04;;;;;;;8.88;8.10;;;;;;;;;;5104143;28;20294;-83
2023/07/13 10:43:36;;;;;;;8.80;8.00;;;;;;;;;;5095418;28;20272;-84
2023/07/13 10:46:05;;;;;;;9.52;8.07;;;;;;;;;;5112350;28;20203;-83
2023/07/13 10:48:34;;;;;;;9.38;7.72;;;;;;;;;;5098554;28;20198;-83
2023/07/13 10:51:02;;;;;;;8.52;7.72;;;;;;;;;;5101661;28;20232;-83
2023/07/13 10:53:31;;;;;;;7.68;7.00;;;;;;;;;;5106005;28;20196;-83
2023/07/13 10:56:02;;;;;;;7.53;6.80;;;;;;;;;;5104517;28;20204;-83
2023/07/13 10:58:34;;;;;;;7.20;6.60;;;;;;;;;;5106466;28;20283;-82
2023/07/13 11:01:08;;;;;;;6.68;6.07;;;;;;;;;;5106314;28;20200;-83
2023/07/13 11:03:37;;;;;;;6.43;5.80;;;;;;;;;;5100250;28;20289;-83
2023/07/13 11:06:12;;;;;;;8.02;6.70;;;;;;;;;;5098890;28;20212;-83
2023/07/13 11:08:52;;;;;;;6.53;6.03;;;;;;;;;;5102988;28;20208;-83
2023/07/13 11:11:38;;;;;;;6.35;5.75;;;;;;;;;;5096866;28;20742;-82
2023/07/13 11:14:07;;;;;;;6.72;5.95;;;;;;;;;;5097998;28;20204;-82
2023/07/13 11:16:38;;;;;;;7.60;5.32;;;;;;;;;;5100289;28;20252;-83
2023/07/13 11:19:39;;;;;;;6.03;5.40;;;;;;;;;;5098280;28;20197;-83
2023/07/13 11:22:42;;;;;;;6.45;5.95;;;;;;;;;;5098983;28;20253;-83
2023/07/13 11:25:30;;;;;;;6.05;5.47;;;;;;;;;;5103244;28;20306;-83
2023/07/13 11:28:14;;;;;;;7.03;6.32;;;;;;;;;;5103826;28;20207;-83
2023/07/13 11:30:43;;;;;;;6.90;6.10;;;;;;;;;;5105361;28;20689;-83
2023/07/13 11:33:17;;;;;;;8.00;6.82;;;;;;;;;;5103493;28;20237;-83
2023/07/13 11:35:52;;;;;;;7.20;6.43;;;;;;;;;;5097853;28;20207;-83
2023/07/13 11:38:23;;;;;;;9.35;6.95;;;;;;;;;;5112150;28;20199;-83
2023/07/13 11:40:54;;;;;;;6.68;6.10;;;;;;;;;;5091720;28;20200;-83
2023/07/13 11:43:23;;;;;;;9.70;6.78;;;;;;;;;;5104841;28;20200;-83
2023/07/13 11:45:50;;;;;;;8.02;7.32;;;;;;;;;;5100189;28;20273;-83
2023/07/13 11:48:25;;;;;;;7.90;7.20;;;;;;;;;;5111444;28;20195;-83
2023/07/13 11:51:00;;;;;;;7.30;6.55;;;;;;;;;;5101915;28;20227;-83
2023/07/13 11:53:31;;;;;;;7.50;6.88;;;;;;;;;;5091457;28;20264;-83
2023/07/13 11:55:58;;;;;;;7.15;6.53;;;;;;;;;;5091407;28;20606;-84
2023/07/13 11:58:28;;;;;;;6.78;6.25;;;;;;;;;;5104765;28;20204;-83
2023/07/13 12:00:57;;;;;;;6.97;6.38;;;;;;;;;;5103250;28;20282;-83
2023/07/13 12:03:25;;;;;;;7.25;6.57;;;;;;;;;;5105770;28;20200;-83
2023/07/13 12:06:00;;;;;;;8.02;6.38;;;;;;;;;;5103830;28;20223;-84
2023/07/13 12:08:29;;;;;;;16.10;7.13;;;;;;;;;;5103877;28;20192;-83
2023/07/13 12:11:05;;;;;;;9.02;7.15;;;;;;;;;;5104822;28;20218;-83
2023/07/13 12:13:37;;;;;;;7.35;6.55;;;;;;;;;;5111263;28;20195;-84
2023/07/13 12:16:12;;;;;;;8.32;6.40;;;;;;;;;;5108332;28;20196;-83
2023/07/13 12:18:39;;;;;;;9.70;7.75;;;;;;;;;;5090883;28;20595;-83
2023/07/13 12:21:07;;;;;;;7.10;6.50;;;;;;;;;;5104294;28;20196;-83
2023/07/13 12:23:36;;;;;;;7.30;6.68;;;;;;;;;;5091000;28;20234;-83
2023/07/13 12:26:09;;;;;;;7.00;6.43;;;;;;;;;;5104530;28;20219;-83
2023/07/13 12:28:37;;;;;;;9.38;6.70;;;;;;;;;;5090736;28;20196;-83
2023/07/13 12:31:06;;;;;;;7.15;6.45;;;;;;;;;;5110920;28;20256;-82
2023/07/13 12:33:34;;;;;;;9.25;7.25;;;;;;;;;;5097463;28;20192;-83
2023/07/13 12:36:03;;;;;;;8.50;6.85;;;;;;;;;;5103134;28;20208;-83
2023/07/13 12:38:31;;;;;;;9.32;6.55;;;;;;;;;;5104008;28;20199;-83
2023/07/13 12:41:00;;;;;;;8.27;7.40;;;;;;;;;;5099430;28;20206;-83
2023/07/13 12:43:27;;;;;;;8.32;7.28;;;;;;;;;;5094611;28;20204;-83
2023/07/13 12:45:59;;;;;;;8.63;7.75;;;;;;;;;;5099808;28;20284;-83
2023/07/13 12:48:25;;;;;;;10.55;8.10;;;;;;;;;;5110564;28;20195;-83
2023/07/13 12:50:54;;;;;;;8.55;7.30;;;;;;;;;;5111270;28;20231;-83
2023/07/13 12:53:23;;;;;;;7.75;6.82;;;;;;;;;;5097089;28;20200;-82
2023/07/13 12:55:51;;;;;;;8.75;7.30;;;;;;;;;;5100931;28;20215;-83
2023/07/13 12:58:27;;;;;;;10.73;7.63;;;;;;;;;;5104650;28;20207;-83
2023/07/13 13:00:55;;;;;;;7.22;6.53;;;;;;;;;;5102607;28;20995;-83
2023/07/13 13:03:27;;;;;;;7.15;6.40;;;;;;;;;;5105285;28;20208;-83
2023/07/13 13:06:04;;;;;;;7.78;7.10;;;;;;;;;;5104204;28;20226;-83
2023/07/13 13:08:31;;;;;;;7.65;6.70;;;;;;;;;;5090446;28;20653;-82
2023/07/13 13:10:58;;;;;;;8.40;7.18;;;;;;;;;;5093431;28;20215;-83
2023/07/13 13:13:26;;;;;;;8.48;6.90;;;;;;;;;;5102845;28;20188;-82
2023/07/13 13:15:53;;;;;;;8.05;6.65;;;;;;;;;;5099058;28;20200;-83
2023/07/13 13:18:22;;;;;;;10.93;7.60;;;;;;;;;;5103409;28;20650;-83
2023/07/13 13:20:49;;;;;;;6.95;6.35;;;;;;;;;;5111916;28;20212;-82
2023/07/13 13:23:17;;;;;;;8.13;6.35;;;;;;;;;;5103809;28;20203;-83
2023/07/13 13:25:44;;;;;;;11.85;7.43;;;;;;;;;;5100583;28;20677;-82
2023/07/13 13:28:15;;;;;;;8.40;7.57;;;;;;;;;;5104229;28;20215;-83
2023/07/13 13:30:45;;;;;;;10.27;6.38;;;;;;;;;;5094413;28;20223;-84
2023/07/13 13:33:13;;;;;;;7.13;6.50;;;;;;;;;;5093702;28;20200;-83
2023/07/13 13:35:41;;;;;;;10.20;7.47;;;;;;;;;;5113293;28;20200;-82
2023/07/13 13:38:13;;;;;;;8.15;6.50;;;;;;;;;;5101904;28;20204;-83
2023/07/13 13:40:41;;;;;;;10.65;7.03;;;;;;;;;;5107795;28;20200;-83
2023/07/13 13:43:15;;;;;;;8.32;7.13;;;;;;;;;;5107689;28;20278;-83
2023/07/13 13:45:44;;;;;;;8.55;6.85;;;;;;;;;;5093746;28;20259;-83
2023/07/13 13:48:15;;;;;;;10.52;7.15;;;;;;;;;;5095263;28;20208;-83
2023/07/13 13:50:42;;;;;;;10.60;6.65;;;;;;;;;;5104770;28;20236;-83
2023/07/13 13:53:12;;;;;;;8.25;6.50;;;;;;;;;;5107084;28;20215;-83
2023/07/13 13:55:39;;;;;;;10.85;7.65;;;;;;;;;;5103679;28;20227;-83
2023/07/13 13:58:06;;;;;;;7.70;7.07;;;;;;;;;;5113409;28;20254;-82
2023/07/13 14:00:32;;;;;;;7.53;6.20;;;;;;;;;;5113825;28;20257;-82
2023/07/13 14:03:01;;;;;;;9.40;6.70;;;;;;;;;;5097513;28;20210;-82
2023/07/13 14:05:30;;;;;;;15.07;7.07;;;;;;;;;;5093696;28;20315;-82
2023/07/13 14:07:56;;;;;;;7.45;6.70;;;;;;;;;;5093491;28;20211;-82
2023/07/13 14:10:23;;;;;;;9.93;6.93;;;;;;;;;;5093523;28;20223;-82
2023/07/13 14:12:53;;;;;;;9.63;7.97;;;;;;;;;;5106839;28;20196;-82
2023/07/13 14:22:05;;;;;;;10.75;7.25;;;;;;;;;;5093195;28;20701;-82
2023/07/13 14:24:31;;;;;;;12.90;8.25;;;;;;;;;;5106723;28;20257;-82
2023/07/13 14:26:58;;;;;;;10.98;6.97;;;;;;;;;;5105817;28;20223;-82
2023/07/13 14:29:25;;;;;;;9.40;6.53;;;;;;;;;;5093398;28;20204;-82
2023/07/13 14:31:52;;;;;;;15.45;7.72;;;;;;;;;;5090055;28;20212;-82
2023/07/13 14:34:19;;;;;;;11.15;6.68;;;;;;;;;;5094307;28;20199;-81
2023/07/13 14:36:46;;;;;;;11.38;7.35;;;;;;;;;;5113066;28;20211;-81
2023/07/13 14:39:16;;;;;;;9.52;6.97;;;;;;;;;;5107087;28;20282;-80
2023/07/13 14:41:43;;;;;;;9.40;6.70;;;;;;;;;;5099696;28;20207;-81